Bewolking Meer informatie Parkstad Weather Satellite


Neerslagradar Meer informatie Parkstad Rain Snow Radar


Onweersbuien Meer informatie Parkstad Lighntning


24/7 Weercamera Meer informatie Parkstad Weathercam


Natuurbrandrisico
CBI







METAR rapporten vliegvelden

   
EHAM - Amsterdam
Gewijzigd: 19-08-2022 09:25
Gedeeltelijk bewolkt  
Gedeeltelijk bewolkt  
   Wind: ZZW 11.1 km/h
Wind: ZZW 11.1 km/h
Temperatuur: 20°C
Dauwpunt: 19°C
Vochtigheid: 94%
Barometer: 1013 hPa
Satelliet beelden: Gedeeltelijk bewolkt
Zicht: 6 km
Bewolking: Licht bewolkt 183 m,
Gedeeltelijk bewolkt 213 m
EHAM 190725Z 20006KT 170V230 6000 FEW006 SCT007 20/19 Q1013 BECMG 9999 TEMPO BKN010
EBAW - Antwerpen
Gewijzigd: 19-08-2022 09:20
Bewolking  
Bewolking  
   Wind: ZW 11.1 km/h
Wind: ZW 11.1 km/h
Temperatuur: 18°C
Dauwpunt: 15°C
Vochtigheid: 83%
Barometer: 1015 hPa
Satelliet beelden: Bewolking
Zicht: meer dan 10 km
Bewolking: Bewolking 274 m
EBAW 190720Z 22006KT 9999 OVC009 18/15 Q1015 NOSIG
EGLL - London
Gewijzigd: 19-08-2022 09:20
Gedeeltelijk bewolkt  
Gedeeltelijk bewolkt  
   Wind: Westen 20.4 km/h
Wind: Westen 20.4 km/h
Temperatuur: 20°C
Dauwpunt: 15°C
Vochtigheid: 73%
Barometer: 1014 hPa
Satelliet beelden: Gedeeltelijk bewolkt
Zicht: meer dan 10 km
Bewolking: Gedeeltelijk bewolkt 1219 m
EGLL 190720Z AUTO 26011KT 9999 SCT040 20/15 Q1014
ELLX - Luxemburg
Gewijzigd: 19-08-2022 09:20
Helder  
Helder  
   Wind: NNW 11.1 km/h
Wind: NNW 11.1 km/h
Temperatuur: 20°C
Dauwpunt: 15°C
Vochtigheid: 73%
Barometer: 1016 hPa
Zicht: meer dan 10 km
Bewolking: Helder
ELLX 190720Z 33006KT CAVOK 20/15 Q1016 NOSIG
EDDM - München
Gewijzigd: 19-08-2022 09:20
Kleine regenbuien, Neerslag, Bewolking  
Kleine regenbuien, Neerslag, Bewolking  
   Wind: WZW 7.4 km/h
Wind: WZW 7.4 km/h
Satelliet beelden: Bewolking
Zicht: meer dan 10 km
Bewolking: Grotendeels bewolkt 305 m,
Bewolking 762 m
EDDM 190720Z AUTO 24004KT 220V320 9999 -SHRA BKN010 OVC025 FEW///TCU 18/17 Q1012 RESHRA TEMPO SHRA BKN009
LFPO - Parijs
Gewijzigd: 19-08-2022 09:30
Bewolking  
Bewolking  
   Wind: WNW 13 km/h
Wind: WNW 13 km/h
Temperatuur: 19°C
Dauwpunt: 16°C
Vochtigheid: 83%
Barometer: 1018 hPa
Satelliet beelden: Bewolking
Zicht: meer dan 10 km
Bewolking: Bewolking 366 m
LFPO 190730Z 30007KT 9999 OVC012 19/16 Q1018 TEMPO BKN014
EDDL - Düsseldorf
Gewijzigd: 19-08-2022 09:20
Helder  
Helder  
   Wind: Westen 7.4 km/h
Wind: Westen 7.4 km/h
Temperatuur: 20°C
Dauwpunt: 16°C
Vochtigheid: 78%
Barometer: 1014 hPa
Satelliet beelden: Helder
Zicht: 8 km
Bewolking: Helder
EDDL 190720Z AUTO 26004KT 240V300 8000 NCD 20/16 Q1014 NOSIG
EDDK - Köln/Bonn Duitsland
Gewijzigd: 19-08-2022 09:20
Helder  
Helder  
   Wind: varieert 3.7 km/h
Wind: varieert 3.7 km/h
Temperatuur: 20°C
Dauwpunt: 16°C
Vochtigheid: 78%
Barometer: 1014 hPa
Zicht: meer dan 10 km
Bewolking: Helder
EDDK 190720Z AUTO VRB02KT CAVOK 20/16 Q1014 NOSIG
TNCA - Oranjestad Aruba
Gewijzigd: 19-08-2022 09:00
Licht bewolkt  
Licht bewolkt  
   Wind: Oosten 18.5 km/h
Wind: Oosten 18.5 km/h
Temperatuur: 28°C
Gevoelstemperatuur: 31°C
Dauwpunt: 23°C
Vochtigheid: 74%
Barometer: 1012 hPa
Satelliet beelden: Licht bewolkt
Zicht: meer dan 10 km
Bewolking: Licht bewolkt 549 m
TNCA 190700Z 09010KT 9999 FEW018 28/23 Q1012 NOSIG
TNCC - Willemstad Curacao
Gewijzigd: 19-08-2022 09:00
Licht bewolkt  
Licht bewolkt  
   Wind: Oosten 20.4 km/h
Wind: Oosten 20.4 km/h
Temperatuur: 28°C
Gevoelstemperatuur: 31°C
Dauwpunt: 23°C
Vochtigheid: 74%
Barometer: 1011 hPa
Satelliet beelden: Licht bewolkt
Zicht: meer dan 10 km
Bewolking: Licht bewolkt 579 m
TNCC 190700Z 10011KT 9999 FEW019 28/23 Q1011 NOSIG
LEAL - La Nucia Spanje
Gewijzigd: 19-08-2022 09:30
Helder  
Helder  
   Wind: Westen 5.6 km/h
Wind: Westen 5.6 km/h
Temperatuur: 27°C
Gevoelstemperatuur: 28°C
Dauwpunt: 19°C
Vochtigheid: 62%
Barometer: 1019 hPa
Zicht: meer dan 10 km
Bewolking: Helder
LEAL 190730Z 28003KT 240V340 CAVOK 27/19 Q1019 NOSIG
 

Script ontwikkeld door  Saratoga-weather.org Aangepast voor de template door  Weerstation Leuven

U vindt ons ook hier:

Het Weer Aktueel

WOW Nederland KNMI

Vereniging voor Weerkunde en Klimatologie

UK Met Office Weather Observation Website (WOW)

WeatherCloud

Weather Underground

Awekas

MeteoMap.Cloud

HAMweather, WeatherForYou, PWS Weather

Citizen Weather Observer Program (CWOP)

Apparatuur in gebruik:

Hardwareleverancier
Weerhuisje

Weerstation
Vantage Pro2+ UV

Weercomputer's
alix3d2 & wl330n

Weerprogramma's
Smartbedded

Satelliet NOAA's
WRX137 & KX137

Satelliet Eumetsat
Ayecka SR1 & Triax

Bliksemdetectie
Boltek StormTracker

Webleverancier
F-Service

Weerhuisje

Vantage Pro2+ UV

alix3d2 & wl330n

Smartbedded

WRX137 & KX137

Ayecka SR1 & Triax

Boltek StormTracker

F-Service